createdAt,value
2017-10-24T00:01:10.113Z,101643.48
2017-10-24T00:03:37.645Z,101651.92
2017-10-24T00:06:05.225Z,101661.25
2017-10-24T00:08:33.655Z,101654.47
2017-10-24T00:11:01.880Z,101652.25
2017-10-24T00:13:29.676Z,101649.67
2017-10-24T00:15:57.235Z,101652.85
2017-10-24T00:18:24.767Z,101655.88
2017-10-24T00:20:53.030Z,101660.43
2017-10-24T00:23:20.596Z,101663.89
2017-10-24T00:25:48.128Z,101665.11
2017-10-24T00:28:15.718Z,101668.98
2017-10-24T00:30:43.247Z,101667.90
2017-10-24T00:33:10.837Z,101681.42
2017-10-24T00:35:39.157Z,101676.72
2017-10-24T00:38:06.740Z,101681.11
2017-10-24T00:40:34.271Z,101680.84
2017-10-24T00:43:01.809Z,101676.08
2017-10-24T00:45:29.603Z,101672.91
2017-10-24T00:47:57.152Z,101681.27
2017-10-24T00:50:25.469Z,101683.84
2017-10-24T00:52:53.002Z,101682.99
2017-10-24T00:55:21.324Z,101688.44
2017-10-24T00:57:48.860Z,101690.39
2017-10-24T01:00:16.387Z,101690.23
2017-10-24T01:02:43.921Z,101690.89
2017-10-24T01:05:11.447Z,101696.45
2017-10-24T01:07:38.979Z,101693.95
2017-10-24T01:10:06.519Z,101704.92
2017-10-24T01:12:34.054Z,101702.80
2017-10-24T01:15:02.631Z,101702.16
2017-10-24T01:17:31.120Z,101697.09
2017-10-24T01:19:59.576Z,101696.94
2017-10-24T01:22:27.111Z,101693.48
2017-10-24T01:24:54.644Z,101700.02
2017-10-24T01:27:23.107Z,101695.75
2017-10-24T01:29:50.637Z,101689.66
2017-10-24T01:32:18.166Z,101689.20
2017-10-24T01:34:45.691Z,101692.52
2017-10-24T01:37:14.171Z,101694.98
2017-10-24T01:39:41.701Z,101695.82
2017-10-24T01:42:10.033Z,101695.61
2017-10-24T01:44:37.559Z,101693.23
2017-10-24T01:47:05.947Z,101704.06
2017-10-24T01:49:33.507Z,101702.63
2017-10-24T01:52:01.828Z,101696.47
2017-10-24T01:54:30.016Z,101707.98
2017-10-24T01:56:58.337Z,101707.41
2017-10-24T01:59:25.864Z,101704.69
2017-10-24T02:01:53.391Z,101707.98
2017-10-24T02:04:20.925Z,101707.33
2017-10-24T02:06:49.351Z,101713.38
2017-10-24T02:09:16.880Z,101711.45
2017-10-24T02:11:44.414Z,101708.84
2017-10-24T02:14:12.597Z,101719.53
2017-10-24T02:16:40.128Z,101713.58
2017-10-24T02:19:07.653Z,101719.35
2017-10-24T02:21:35.235Z,101713.58
2017-10-24T02:24:02.760Z,101706.23
2017-10-24T02:26:31.770Z,101699.70
2017-10-24T02:29:00.389Z,101701.98
2017-10-24T02:31:28.730Z,101703.26
2017-10-24T02:33:56.256Z,101708.88
2017-10-24T02:36:24.565Z,101708.91
2017-10-24T02:38:52.908Z,101717.41
2017-10-24T02:41:20.474Z,101716.40
2017-10-24T02:43:48.916Z,101714.03
2017-10-24T02:46:16.461Z,101711.27
2017-10-24T02:48:44.902Z,101712.62
2017-10-24T02:51:12.437Z,101715.15
2017-10-24T02:53:40.865Z,101715.46
2017-10-24T02:56:08.409Z,101719.27
2017-10-24T02:58:36.970Z,101713.61
2017-10-24T03:01:04.515Z,101719.77
2017-10-24T03:03:32.981Z,101728.04
2017-10-24T03:06:00.952Z,101731.38
2017-10-24T03:08:29.192Z,101735.05
2017-10-24T03:10:56.735Z,101735.42
2017-10-24T03:13:24.261Z,101741.85
2017-10-24T03:15:52.573Z,101735.72
2017-10-24T03:18:20.114Z,101743.56
2017-10-24T03:20:48.599Z,101742.16
2017-10-24T03:23:16.132Z,101744.90
2017-10-24T03:25:44.608Z,101745.95
2017-10-24T03:28:12.142Z,101748.53
2017-10-24T03:30:40.501Z,101748.05
2017-10-24T03:33:08.032Z,101747.63
2017-10-24T03:35:36.529Z,101758.98
2017-10-24T03:38:04.056Z,101758.34
2017-10-24T03:40:32.432Z,101756.74
2017-10-24T03:43:00.900Z,101751.91
2017-10-24T03:45:28.430Z,101750.03
2017-10-24T03:47:56.927Z,101751.91
2017-10-24T03:50:25.239Z,101759.61
2017-10-24T03:52:52.768Z,101764.70
2017-10-24T03:55:20.304Z,101770.41
2017-10-24T03:57:48.741Z,101764.23
2017-10-24T04:00:19.294Z,101757.09
2017-10-24T04:02:47.634Z,101755.09
2017-10-24T04:05:15.204Z,101755.50
2017-10-24T04:07:43.642Z,101756.73
2017-10-24T04:10:11.180Z,101760.50
2017-10-24T04:12:38.711Z,101768.16
2017-10-24T04:15:06.236Z,101780.33
2017-10-24T04:17:33.760Z,101767.33
2017-10-24T04:20:01.856Z,101764.59
2017-10-24T04:22:31.203Z,101764.38
2017-10-24T04:24:58.737Z,101765.27
2017-10-24T04:27:26.279Z,101772.42
2017-10-24T04:29:53.807Z,101766.34
2017-10-24T04:32:21.342Z,101774.38
2017-10-24T04:34:49.688Z,101775.47
2017-10-24T04:37:17.223Z,101782.61
2017-10-24T04:39:44.758Z,101780.81
2017-10-24T04:42:12.297Z,101783.65
2017-10-24T04:44:39.843Z,101787.79
2017-10-24T04:47:07.384Z,101787.43
2017-10-24T04:49:35.016Z,101788.92
2017-10-24T04:52:03.476Z,101793.55
2017-10-24T04:54:31.731Z,101795.38
2017-10-24T04:57:00.660Z,101792.43
2017-10-24T04:59:28.228Z,101791.49
2017-10-24T05:01:56.547Z,101790.01
2017-10-24T05:04:24.079Z,101781.66
2017-10-24T05:06:52.444Z,101787.13
2017-10-24T05:09:19.979Z,101788.95
2017-10-24T05:11:47.565Z,101780.68
2017-10-24T05:14:15.107Z,101783.66
2017-10-24T05:16:42.645Z,101776.13
2017-10-24T05:19:11.160Z,101779.98
2017-10-24T05:21:38.687Z,101780.16
2017-10-24T05:24:07.129Z,101786.64
2017-10-24T05:26:34.775Z,101785.57
2017-10-24T05:29:02.429Z,101786.88
2017-10-24T05:31:30.771Z,101792.53
2017-10-24T05:33:58.307Z,101792.16
2017-10-24T05:36:25.933Z,101795.66
2017-10-24T05:38:53.457Z,101801.46
2017-10-24T05:41:20.989Z,101794.11
2017-10-24T05:43:49.419Z,101798.63
2017-10-24T05:46:16.985Z,101801.84
2017-10-24T05:48:44.557Z,101803.39
2017-10-24T05:51:12.895Z,101807.20
2017-10-24T05:53:40.425Z,101811.00
2017-10-24T05:56:07.949Z,101819.66
2017-10-24T05:58:36.408Z,101816.75
2017-10-24T06:01:03.932Z,101815.63
2017-10-24T06:03:32.389Z,101815.63
2017-10-24T06:06:00.592Z,101816.50
2017-10-24T06:08:28.896Z,101816.03
2017-10-24T06:10:56.434Z,101814.05
2017-10-24T06:13:24.012Z,101816.45
2017-10-24T06:15:51.546Z,101820.06
2017-10-24T06:18:19.168Z,101823.33
2017-10-24T06:20:46.697Z,101828.28
2017-10-24T06:23:14.231Z,101832.39
2017-10-24T06:25:41.761Z,101829.02
2017-10-24T06:28:10.124Z,101832.70
2017-10-24T06:30:37.663Z,101836.06
2017-10-24T06:33:06.177Z,101837.81
2017-10-24T06:35:33.760Z,101840.72
2017-10-24T06:38:02.192Z,101842.63
2017-10-24T06:40:30.607Z,101848.39
2017-10-24T06:42:58.976Z,101849.28
2017-10-24T06:45:27.283Z,101849.66
2017-10-24T06:47:54.849Z,101850.77
2017-10-24T06:50:23.168Z,101854.14
2017-10-24T06:52:50.748Z,101855.77
2017-10-24T06:55:18.313Z,101854.81
2017-10-24T06:57:46.784Z,101865.69
2017-10-24T07:00:15.128Z,101873.77
2017-10-24T07:02:42.665Z,101872.92
2017-10-24T07:05:10.192Z,101873.58
2017-10-24T07:07:38.644Z,101879.23
2017-10-24T07:10:06.225Z,101880.75
2017-10-24T07:12:34.686Z,101880.95
2017-10-24T07:15:02.922Z,101876.71
2017-10-24T07:17:30.716Z,101878.42
2017-10-24T07:19:58.249Z,101878.02
2017-10-24T07:22:28.449Z,101888.68
2017-10-24T07:24:55.979Z,101885.14
2017-10-24T07:27:24.332Z,101873.26
2017-10-24T07:29:52.180Z,101879.27
2017-10-24T07:32:19.815Z,101880.06
2017-10-24T07:34:47.363Z,101886.91
2017-10-24T07:37:14.896Z,101878.78
2017-10-24T07:39:42.432Z,101888.00
2017-10-24T07:42:09.987Z,101885.75
2017-10-24T07:44:37.609Z,101882.38
2017-10-24T07:47:05.268Z,101884.80
2017-10-24T07:49:32.795Z,101877.30
2017-10-24T07:52:00.325Z,101878.73
2017-10-24T07:54:28.627Z,101881.98
2017-10-24T07:56:56.227Z,101883.63
2017-10-24T07:59:24.799Z,101893.62
2017-10-24T08:01:52.984Z,101898.45
2017-10-24T08:04:20.644Z,101889.18
2017-10-24T08:06:49.032Z,101891.14
2017-10-24T08:09:16.611Z,101888.63
2017-10-24T08:11:44.924Z,101884.41
2017-10-24T08:14:12.465Z,101889.02
2017-10-24T08:16:41.016Z,101892.68
2017-10-24T08:19:08.681Z,101896.95
2017-10-24T08:21:36.247Z,101897.39
2017-10-24T08:24:04.721Z,101897.95
2017-10-24T08:26:32.377Z,101888.58
2017-10-24T08:29:00.721Z,101886.78
2017-10-24T08:31:28.251Z,101889.16
2017-10-24T08:33:56.714Z,101883.48
2017-10-24T08:36:25.088Z,101885.77
2017-10-24T08:38:54.148Z,101888.50
2017-10-24T08:41:21.675Z,101890.67
2017-10-24T08:43:50.015Z,101891.81
2017-10-24T08:46:17.573Z,101891.03
2017-10-24T08:48:45.941Z,101886.84
2017-10-24T08:51:14.172Z,101887.53
2017-10-24T08:53:41.792Z,101889.12
2017-10-24T08:56:09.333Z,101889.91
2017-10-24T08:58:37.763Z,101888.17
2017-10-24T09:01:06.316Z,101891.50
2017-10-24T09:03:33.875Z,101886.45
2017-10-24T09:06:18.336Z,101884.78
2017-10-24T09:12:10.324Z,101875.22
2017-10-24T09:14:39.623Z,101874.34
2017-10-24T09:20:08.509Z,101873.70
2017-10-24T09:22:36.084Z,101881.46
2017-10-24T09:25:03.621Z,101870.91
2017-10-24T09:27:31.208Z,101877.31
2017-10-24T09:29:59.676Z,101878.65
2017-10-24T09:32:29.733Z,101869.45
2017-10-24T09:34:58.269Z,101865.39
2017-10-24T09:37:25.799Z,101866.25
2017-10-24T09:39:53.360Z,101872.52
2017-10-24T09:42:20.950Z,101860.73
2017-10-24T09:44:48.483Z,101862.47
2017-10-24T09:47:16.074Z,101866.09
2017-10-24T09:49:55.461Z,101865.36
2017-10-24T09:52:23.005Z,101863.78
2017-10-24T09:54:50.536Z,101873.22
2017-10-24T09:57:18.077Z,101870.29
2017-10-24T09:59:46.325Z,101858.47
2017-10-24T10:02:13.862Z,101862.62
2017-10-24T10:04:41.392Z,101857.11
2017-10-24T10:07:09.712Z,101848.34
2017-10-24T10:09:37.260Z,101839.52
2017-10-24T10:12:04.887Z,101844.98
2017-10-24T10:14:32.448Z,101849.92
2017-10-24T10:16:59.981Z,101852.64
2017-10-24T10:19:27.512Z,101855.40
2017-10-24T10:21:55.134Z,101853.91
2017-10-24T10:24:30.367Z,101850.09
2017-10-24T10:26:58.644Z,101860.20
2017-10-24T10:29:26.171Z,101871.03
2017-10-24T10:31:53.699Z,101873.52
2017-10-24T10:34:21.244Z,101868.23
2017-10-24T10:36:49.766Z,101864.31
2017-10-24T10:39:17.369Z,101859.03
2017-10-24T10:41:44.907Z,101855.73
2017-10-24T10:44:12.494Z,101860.40
2017-10-24T10:46:40.055Z,101855.46
2017-10-24T10:49:07.596Z,101860.66
2017-10-24T10:51:35.920Z,101865.72
2017-10-24T10:54:03.461Z,101865.52
2017-10-24T10:56:30.993Z,101867.02
2017-10-24T10:58:58.575Z,101868.06
2017-10-24T11:01:26.114Z,101856.50
2017-10-24T11:03:54.518Z,101849.02
2017-10-24T11:06:22.068Z,101841.08
2017-10-24T11:08:49.627Z,101845.03
2017-10-24T11:11:17.201Z,101839.91
2017-10-24T11:13:44.728Z,101853.77
2017-10-24T11:16:13.296Z,101856.89
2017-10-24T11:18:41.533Z,101852.10
2017-10-24T11:21:09.978Z,101855.64
2017-10-24T11:23:37.708Z,101866.81
2017-10-24T11:26:05.236Z,101858.95
2017-10-24T11:28:32.778Z,101858.22
2017-10-24T11:31:00.306Z,101854.09
2017-10-24T11:33:27.852Z,101862.13
2017-10-24T11:35:55.388Z,101859.14
2017-10-24T11:38:22.921Z,101865.66
2017-10-24T11:40:50.457Z,101866.73
2017-10-24T11:43:17.988Z,101868.45
2017-10-24T11:45:45.571Z,101868.38
2017-10-24T11:48:13.154Z,101869.77
2017-10-24T11:50:40.684Z,101864.41
2017-10-24T11:53:09.299Z,101856.63
2017-10-24T11:55:36.849Z,101856.75
2017-10-24T11:58:04.433Z,101850.20
2017-10-24T12:00:31.985Z,101852.92
2017-10-24T12:02:59.542Z,101856.20
2017-10-24T12:05:27.072Z,101852.58
2017-10-24T12:07:54.657Z,101856.87
2017-10-24T12:10:22.230Z,101853.69
2017-10-24T12:12:49.801Z,101852.50
2017-10-24T12:15:17.376Z,101855.61
2017-10-24T12:17:45.812Z,101853.43
2017-10-24T12:20:13.929Z,101850.37
2017-10-24T12:22:41.563Z,101852.91
2017-10-24T12:25:10.042Z,101846.95
2017-10-24T12:27:37.851Z,101849.92
2017-10-24T12:30:05.432Z,101853.27
2017-10-24T12:32:32.967Z,101845.31
2017-10-24T12:35:00.497Z,101844.22
2017-10-24T12:37:28.060Z,101835.95
2017-10-24T12:39:55.596Z,101837.30
2017-10-24T12:42:23.448Z,101830.11
2017-10-24T12:45:00.872Z,101833.41
2017-10-24T12:47:28.400Z,101821.90
2017-10-24T12:53:05.873Z,101805.55
2017-10-24T12:55:33.405Z,101805.70
2017-10-24T12:58:01.245Z,101809.87
2017-10-24T13:00:28.772Z,101811.05
2017-10-24T13:02:56.304Z,101808.42
2017-10-24T13:05:26.227Z,101805.69
2017-10-24T13:07:54.521Z,101802.30
2017-10-24T13:10:22.556Z,101804.34
2017-10-24T13:12:50.080Z,101810.26
2017-10-24T13:15:17.859Z,101808.14
2017-10-24T13:17:46.250Z,101805.20
2017-10-24T13:20:14.749Z,101806.29
2017-10-24T13:22:43.016Z,101797.45
2017-10-24T13:25:10.586Z,101787.05
2017-10-24T13:27:38.122Z,101783.91
2017-10-24T13:30:06.433Z,101783.62
2017-10-24T13:32:35.046Z,101780.20
2017-10-24T13:35:03.474Z,101779.59
2017-10-24T13:37:31.041Z,101775.37
2017-10-24T13:39:59.513Z,101772.25
2017-10-24T13:42:28.111Z,101767.98
2017-10-24T13:44:55.636Z,101760.54
2017-10-24T13:47:24.053Z,101764.58
2017-10-24T13:49:52.600Z,101761.41
2017-10-24T13:52:20.950Z,101755.31
2017-10-24T13:54:48.529Z,101756.02
2017-10-24T13:57:16.061Z,101755.55
2017-10-24T13:59:43.592Z,101755.13
2017-10-24T14:02:11.123Z,101766.19
2017-10-24T14:04:44.332Z,101767.01
2017-10-24T20:44:29.684Z,101602.95
2017-10-24T20:46:58.272Z,101601.16
2017-10-24T20:49:26.699Z,101598.89
2017-10-24T20:51:54.230Z,101601.69
2017-10-24T20:54:21.762Z,101597.80
2017-10-24T20:56:49.335Z,101589.44
2017-10-24T20:59:17.800Z,101588.73
2017-10-24T21:01:46.246Z,101589.13
2017-10-24T21:04:14.692Z,101588.00
2017-10-24T21:06:42.228Z,101585.50
2017-10-24T21:09:10.654Z,101592.22
2017-10-24T21:11:38.309Z,101589.95
2017-10-24T21:14:05.878Z,101589.18
2017-10-24T21:16:33.432Z,101590.30
2017-10-24T21:19:01.849Z,101588.45
2017-10-24T21:21:29.381Z,101593.67
2017-10-24T21:23:57.652Z,101595.05
2017-10-24T21:26:25.312Z,101589.86
2017-10-24T21:28:52.871Z,101598.92
2017-10-24T21:31:20.388Z,101602.84
2017-10-24T21:33:47.912Z,101596.75
2017-10-24T21:36:17.506Z,101588.15
2017-10-24T21:38:45.836Z,101598.38
2017-10-24T21:41:13.440Z,101599.23
2017-10-24T21:43:41.654Z,101585.87
2017-10-24T21:46:10.273Z,101581.34
2017-10-24T21:48:37.801Z,101572.44
2017-10-24T21:51:05.420Z,101569.89
2017-10-24T21:53:33.709Z,101567.25
2017-10-24T21:56:01.227Z,101569.04
2017-10-24T21:58:28.752Z,101562.18
2017-10-24T22:00:56.380Z,101550.59
2017-10-24T22:03:24.658Z,101552.00
2017-10-24T22:05:52.223Z,101551.53
2017-10-24T22:08:19.784Z,101550.89
2017-10-24T22:10:47.341Z,101544.97
2017-10-24T22:13:14.868Z,101539.66
2017-10-24T22:15:42.428Z,101533.08
2017-10-24T22:18:10.360Z,101532.28
2017-10-24T22:20:37.883Z,101520.53
2017-10-24T22:23:05.452Z,101523.83
2017-10-24T22:25:33.013Z,101525.97
2017-10-24T22:28:00.575Z,101535.64
2017-10-24T22:30:28.132Z,101534.23
2017-10-24T22:32:56.509Z,101528.85
2017-10-24T22:35:24.067Z,101525.45
2017-10-24T22:37:53.072Z,101525.13
2017-10-24T22:40:20.729Z,101521.73
2017-10-24T22:42:48.262Z,101515.23
2017-10-24T22:45:15.784Z,101516.16
2017-10-24T22:47:44.086Z,101514.39
2017-10-24T22:50:11.608Z,101521.25
2017-10-24T22:52:39.340Z,101509.50
2017-10-24T22:55:06.907Z,101509.59
2017-10-24T22:57:34.466Z,101510.69
2017-10-24T23:00:02.628Z,101510.77
2017-10-24T23:02:30.200Z,101513.56
2017-10-24T23:04:57.769Z,101511.20
2017-10-24T23:07:26.161Z,101508.20
2017-10-24T23:09:53.703Z,101502.22
2017-10-24T23:12:21.364Z,101503.53
2017-10-24T23:14:48.896Z,101510.68
2017-10-24T23:17:17.280Z,101507.22
2017-10-24T23:19:44.809Z,101510.86
2017-10-24T23:22:12.331Z,101515.22
2017-10-24T23:24:39.861Z,101512.64
2017-10-24T23:27:07.448Z,101517.52
2017-10-24T23:29:35.213Z,101516.33
2017-10-24T23:32:02.746Z,101515.86
2017-10-24T23:34:31.644Z,101511.53
2017-10-24T23:36:59.223Z,101517.51
2017-10-24T23:39:27.744Z,101525.73
2017-10-24T23:41:55.367Z,101517.34
2017-10-24T23:44:22.928Z,101511.66
2017-10-24T23:46:50.455Z,101506.74
2017-10-24T23:49:18.667Z,101513.44
2017-10-24T23:51:46.193Z,101508.23
2017-10-24T23:54:14.607Z,101502.17
2017-10-24T23:56:42.267Z,101494.14
2017-10-24T23:59:09.829Z,101489.22
